sensor_id;sensor_type;location;lat;lon;timestamp;P1;durP1;ratioP1;P2;durP2;ratioP2
10277;SDS011;5184;51.376;7.148;2022-12-18T00:01:14;8.27;;;5.20;;
10277;SDS011;5184;51.376;7.148;2022-12-18T00:03:42;8.53;;;5.23;;
10277;SDS011;5184;51.376;7.148;2022-12-18T00:06:09;7.20;;;4.97;;
10277;SDS011;5184;51.376;7.148;2022-12-18T00:08:36;8.10;;;4.97;;
10277;SDS011;5184;51.376;7.148;2022-12-18T00:11:07;6.40;;;4.37;;
10277;SDS011;5184;51.376;7.148;2022-12-18T00:13:33;6.43;;;4.20;;
10277;SDS011;5184;51.376;7.148;2022-12-18T00:16:03;7.20;;;4.70;;
10277;SDS011;5184;51.376;7.148;2022-12-18T00:18:30;7.50;;;4.77;;
10277;SDS011;5184;51.376;7.148;2022-12-18T00:20:59;8.20;;;5.83;;
10277;SDS011;5184;51.376;7.148;2022-12-18T00:23:25;8.47;;;5.20;;
10277;SDS011;5184;51.376;7.148;2022-12-18T00:25:52;8.77;;;5.00;;
10277;SDS011;5184;51.376;7.148;2022-12-18T00:28:20;7.53;;;4.73;;
10277;SDS011;5184;51.376;7.148;2022-12-18T00:30:47;7.57;;;4.57;;
10277;SDS011;5184;51.376;7.148;2022-12-18T00:33:14;6.40;;;4.77;;
10277;SDS011;5184;51.376;7.148;2022-12-18T00:35:42;7.07;;;4.30;;
10277;SDS011;5184;51.376;7.148;2022-12-18T00:38:08;6.03;;;4.30;;
10277;SDS011;5184;51.376;7.148;2022-12-18T00:40:35;6.27;;;3.90;;
10277;SDS011;5184;51.376;7.148;2022-12-18T00:43:01;6.90;;;4.07;;
10277;SDS011;5184;51.376;7.148;2022-12-18T00:45:29;7.17;;;4.10;;
10277;SDS011;5184;51.376;7.148;2022-12-18T00:47:55;7.40;;;4.00;;
10277;SDS011;5184;51.376;7.148;2022-12-18T00:50:23;5.07;;;3.80;;
10277;SDS011;5184;51.376;7.148;2022-12-18T00:52:49;5.97;;;4.20;;
10277;SDS011;5184;51.376;7.148;2022-12-18T00:55:17;6.83;;;4.13;;
10277;SDS011;5184;51.376;7.148;2022-12-18T00:57:43;5.53;;;4.57;;
10277;SDS011;5184;51.376;7.148;2022-12-18T01:00:12;8.63;;;4.30;;
10277;SDS011;5184;51.376;7.148;2022-12-18T01:02:37;6.87;;;4.07;;
10277;SDS011;5184;51.376;7.148;2022-12-18T01:05:05;6.30;;;3.73;;
10277;SDS011;5184;51.376;7.148;2022-12-18T01:07:32;8.07;;;4.37;;
10277;SDS011;5184;51.376;7.148;2022-12-18T01:10:00;7.90;;;4.83;;
10277;SDS011;5184;51.376;7.148;2022-12-18T01:12:27;6.53;;;4.47;;
10277;SDS011;5184;51.376;7.148;2022-12-18T01:14:54;6.27;;;4.30;;
10277;SDS011;5184;51.376;7.148;2022-12-18T01:17:20;7.40;;;4.70;;
10277;SDS011;5184;51.376;7.148;2022-12-18T01:19:47;7.60;;;5.30;;
10277;SDS011;5184;51.376;7.148;2022-12-18T01:22:13;7.40;;;5.00;;
10277;SDS011;5184;51.376;7.148;2022-12-18T01:24:40;7.17;;;5.17;;
10277;SDS011;5184;51.376;7.148;2022-12-18T01:27:07;10.50;;;5.47;;
10277;SDS011;5184;51.376;7.148;2022-12-18T01:29:33;8.33;;;5.70;;
10277;SDS011;5184;51.376;7.148;2022-12-18T01:32:00;8.17;;;5.27;;
10277;SDS011;5184;51.376;7.148;2022-12-18T01:34:26;8.30;;;5.27;;
10277;SDS011;5184;51.376;7.148;2022-12-18T01:36:53;6.17;;;4.33;;
10277;SDS011;5184;51.376;7.148;2022-12-18T01:39:20;7.83;;;5.00;;
10277;SDS011;5184;51.376;7.148;2022-12-18T01:41:48;9.63;;;4.97;;
10277;SDS011;5184;51.376;7.148;2022-12-18T01:47:08;6.97;;;4.70;;
10277;SDS011;5184;51.376;7.148;2022-12-18T01:49:35;6.67;;;4.73;;
10277;SDS011;5184;51.376;7.148;2022-12-18T01:52:01;6.27;;;4.43;;
10277;SDS011;5184;51.376;7.148;2022-12-18T01:54:28;7.77;;;4.37;;
10277;SDS011;5184;51.376;7.148;2022-12-18T01:56:55;6.77;;;4.40;;
10277;SDS011;5184;51.376;7.148;2022-12-18T01:59:22;6.17;;;4.50;;
10277;SDS011;5184;51.376;7.148;2022-12-18T02:01:49;6.17;;;4.53;;
10277;SDS011;5184;51.376;7.148;2022-12-18T02:04:21;7.27;;;4.90;;
10277;SDS011;5184;51.376;7.148;2022-12-18T02:06:51;7.00;;;4.73;;
10277;SDS011;5184;51.376;7.148;2022-12-18T02:09:19;6.80;;;4.70;;
10277;SDS011;5184;51.376;7.148;2022-12-18T02:11:50;8.10;;;5.40;;
10277;SDS011;5184;51.376;7.148;2022-12-18T02:16:59;8.90;;;5.10;;
10277;SDS011;5184;51.376;7.148;2022-12-18T02:19:27;7.33;;;4.83;;
10277;SDS011;5184;51.376;7.148;2022-12-18T02:21:57;6.07;;;4.57;;
10277;SDS011;5184;51.376;7.148;2022-12-18T02:24:27;7.23;;;4.60;;
10277;SDS011;5184;51.376;7.148;2022-12-18T02:26:58;6.37;;;4.40;;
10277;SDS011;5184;51.376;7.148;2022-12-18T02:29:28;5.90;;;4.37;;
10277;SDS011;5184;51.376;7.148;2022-12-18T02:31:55;5.57;;;3.97;;
10277;SDS011;5184;51.376;7.148;2022-12-18T02:34:28;6.50;;;4.17;;
10277;SDS011;5184;51.376;7.148;2022-12-18T02:36:52;6.23;;;4.33;;
10277;SDS011;5184;51.376;7.148;2022-12-18T02:39:19;5.77;;;4.23;;
10277;SDS011;5184;51.376;7.148;2022-12-18T02:41:47;4.93;;;4.03;;
10277;SDS011;5184;51.376;7.148;2022-12-18T02:44:14;8.20;;;3.97;;
10277;SDS011;5184;51.376;7.148;2022-12-18T02:46:42;5.83;;;4.10;;
10277;SDS011;5184;51.376;7.148;2022-12-18T02:49:12;7.17;;;4.13;;
10277;SDS011;5184;51.376;7.148;2022-12-18T02:51:59;7.00;;;4.13;;
10277;SDS011;5184;51.376;7.148;2022-12-18T02:54:26;6.33;;;3.50;;
10277;SDS011;5184;51.376;7.148;2022-12-18T02:57:09;4.77;;;3.40;;
10277;SDS011;5184;51.376;7.148;2022-12-18T02:59:54;6.47;;;4.10;;
10277;SDS011;5184;51.376;7.148;2022-12-18T03:05:22;4.90;;;3.83;;
10277;SDS011;5184;51.376;7.148;2022-12-18T03:07:50;5.30;;;3.60;;
10277;SDS011;5184;51.376;7.148;2022-12-18T03:10:16;5.97;;;4.10;;
10277;SDS011;5184;51.376;7.148;2022-12-18T03:12:43;5.37;;;3.50;;
10277;SDS011;5184;51.376;7.148;2022-12-18T03:15:14;5.63;;;4.07;;
10277;SDS011;5184;51.376;7.148;2022-12-18T03:17:45;5.13;;;3.90;;
10277;SDS011;5184;51.376;7.148;2022-12-18T03:20:14;4.40;;;3.80;;
10277;SDS011;5184;51.376;7.148;2022-12-18T03:22:40;8.83;;;3.73;;
10277;SDS011;5184;51.376;7.148;2022-12-18T03:25:07;5.20;;;3.60;;
10277;SDS011;5184;51.376;7.148;2022-12-18T03:27:33;4.40;;;3.53;;
10277;SDS011;5184;51.376;7.148;2022-12-18T03:30:02;5.87;;;4.17;;
10277;SDS011;5184;51.376;7.148;2022-12-18T03:32:31;4.30;;;3.17;;
10277;SDS011;5184;51.376;7.148;2022-12-18T03:34:58;5.53;;;3.90;;
10277;SDS011;5184;51.376;7.148;2022-12-18T03:37:26;6.47;;;4.20;;
10277;SDS011;5184;51.376;7.148;2022-12-18T03:39:53;4.73;;;3.40;;
10277;SDS011;5184;51.376;7.148;2022-12-18T03:42:23;5.20;;;3.40;;
10277;SDS011;5184;51.376;7.148;2022-12-18T03:44:57;5.80;;;3.97;;
10277;SDS011;5184;51.376;7.148;2022-12-18T03:47:27;4.83;;;3.53;;
10277;SDS011;5184;51.376;7.148;2022-12-18T03:49:56;5.67;;;4.03;;
10277;SDS011;5184;51.376;7.148;2022-12-18T03:52:27;6.40;;;4.20;;
10277;SDS011;5184;51.376;7.148;2022-12-18T03:54:53;6.17;;;3.67;;
10277;SDS011;5184;51.376;7.148;2022-12-18T03:57:20;5.03;;;3.47;;
10277;SDS011;5184;51.376;7.148;2022-12-18T03:59:46;5.83;;;3.67;;
10277;SDS011;5184;51.376;7.148;2022-12-18T04:02:13;6.07;;;3.97;;
10277;SDS011;5184;51.376;7.148;2022-12-18T04:04:40;6.43;;;3.77;;
10277;SDS011;5184;51.376;7.148;2022-12-18T04:07:07;5.67;;;3.50;;
10277;SDS011;5184;51.376;7.148;2022-12-18T04:09:33;4.57;;;3.60;;
10277;SDS011;5184;51.376;7.148;2022-12-18T04:12:00;4.93;;;3.10;;
10277;SDS011;5184;51.376;7.148;2022-12-18T04:14:26;6.47;;;3.43;;
10277;SDS011;5184;51.376;7.148;2022-12-18T04:16:53;5.70;;;3.63;;
10277;SDS011;5184;51.376;7.148;2022-12-18T04:19:20;4.47;;;3.20;;
10277;SDS011;5184;51.376;7.148;2022-12-18T04:21:47;4.57;;;3.47;;
10277;SDS011;5184;51.376;7.148;2022-12-18T04:24:14;4.53;;;3.33;;
10277;SDS011;5184;51.376;7.148;2022-12-18T04:26:42;5.73;;;3.60;;
10277;SDS011;5184;51.376;7.148;2022-12-18T04:29:08;5.13;;;3.43;;
10277;SDS011;5184;51.376;7.148;2022-12-18T04:31:35;5.90;;;3.70;;
10277;SDS011;5184;51.376;7.148;2022-12-18T04:34:02;5.60;;;3.90;;
10277;SDS011;5184;51.376;7.148;2022-12-18T04:36:28;5.80;;;3.73;;
10277;SDS011;5184;51.376;7.148;2022-12-18T04:38:56;4.67;;;3.23;;
10277;SDS011;5184;51.376;7.148;2022-12-18T04:41:22;5.27;;;3.50;;
10277;SDS011;5184;51.376;7.148;2022-12-18T04:43:49;5.37;;;3.50;;
10277;SDS011;5184;51.376;7.148;2022-12-18T04:46:15;4.97;;;3.40;;
10277;SDS011;5184;51.376;7.148;2022-12-18T04:48:45;4.17;;;3.10;;
10277;SDS011;5184;51.376;7.148;2022-12-18T04:51:09;5.13;;;3.60;;
10277;SDS011;5184;51.376;7.148;2022-12-18T04:53:35;5.57;;;3.40;;
10277;SDS011;5184;51.376;7.148;2022-12-18T04:56:03;4.53;;;3.63;;
10277;SDS011;5184;51.376;7.148;2022-12-18T04:58:29;4.97;;;3.43;;
10277;SDS011;5184;51.376;7.148;2022-12-18T05:00:56;4.87;;;3.30;;
10277;SDS011;5184;51.376;7.148;2022-12-18T05:03:22;4.73;;;3.47;;
10277;SDS011;5184;51.376;7.148;2022-12-18T05:05:50;4.57;;;3.00;;
10277;SDS011;5184;51.376;7.148;2022-12-18T05:08:17;4.57;;;3.10;;
10277;SDS011;5184;51.376;7.148;2022-12-18T05:10:45;6.20;;;3.10;;
10277;SDS011;5184;51.376;7.148;2022-12-18T05:13:11;4.03;;;2.80;;
10277;SDS011;5184;51.376;7.148;2022-12-18T05:15:38;4.17;;;2.90;;
10277;SDS011;5184;51.376;7.148;2022-12-18T05:18:04;4.10;;;2.90;;
10277;SDS011;5184;51.376;7.148;2022-12-18T05:20:31;3.93;;;2.40;;
10277;SDS011;5184;51.376;7.148;2022-12-18T05:22:58;5.00;;;2.63;;
10277;SDS011;5184;51.376;7.148;2022-12-18T05:25:25;4.50;;;2.87;;
10277;SDS011;5184;51.376;7.148;2022-12-18T05:27:51;4.67;;;2.77;;
10277;SDS011;5184;51.376;7.148;2022-12-18T05:30:18;3.87;;;2.57;;
10277;SDS011;5184;51.376;7.148;2022-12-18T05:32:45;4.53;;;2.70;;
10277;SDS011;5184;51.376;7.148;2022-12-18T05:35:11;4.57;;;2.67;;
10277;SDS011;5184;51.376;7.148;2022-12-18T05:37:38;3.33;;;2.53;;
10277;SDS011;5184;51.376;7.148;2022-12-18T05:40:05;3.50;;;2.50;;
10277;SDS011;5184;51.376;7.148;2022-12-18T05:42:33;4.27;;;3.07;;
10277;SDS011;5184;51.376;7.148;2022-12-18T05:44:59;4.07;;;2.93;;
10277;SDS011;5184;51.376;7.148;2022-12-18T05:47:26;5.10;;;2.70;;
10277;SDS011;5184;51.376;7.148;2022-12-18T05:49:53;3.13;;;2.30;;
10277;SDS011;5184;51.376;7.148;2022-12-18T05:52:20;3.67;;;2.47;;
10277;SDS011;5184;51.376;7.148;2022-12-18T05:54:46;5.33;;;2.70;;
10277;SDS011;5184;51.376;7.148;2022-12-18T05:57:13;4.90;;;2.43;;
10277;SDS011;5184;51.376;7.148;2022-12-18T05:59:40;3.70;;;2.57;;
10277;SDS011;5184;51.376;7.148;2022-12-18T06:02:07;4.17;;;2.70;;
10277;SDS011;5184;51.376;7.148;2022-12-18T06:04:34;4.07;;;2.83;;
10277;SDS011;5184;51.376;7.148;2022-12-18T06:07:01;4.77;;;2.93;;
10277;SDS011;5184;51.376;7.148;2022-12-18T06:09:29;3.47;;;2.60;;
10277;SDS011;5184;51.376;7.148;2022-12-18T06:11:56;4.33;;;2.57;;
10277;SDS011;5184;51.376;7.148;2022-12-18T06:14:24;4.03;;;2.80;;
10277;SDS011;5184;51.376;7.148;2022-12-18T06:16:51;3.13;;;2.50;;
10277;SDS011;5184;51.376;7.148;2022-12-18T06:19:18;4.37;;;3.03;;
10277;SDS011;5184;51.376;7.148;2022-12-18T06:21:44;3.67;;;2.77;;
10277;SDS011;5184;51.376;7.148;2022-12-18T06:24:11;3.50;;;2.50;;
10277;SDS011;5184;51.376;7.148;2022-12-18T06:26:38;3.30;;;2.53;;
10277;SDS011;5184;51.376;7.148;2022-12-18T06:29:06;2.97;;;2.30;;
10277;SDS011;5184;51.376;7.148;2022-12-18T06:31:33;3.80;;;2.67;;
10277;SDS011;5184;51.376;7.148;2022-12-18T06:34:02;3.80;;;2.60;;
10277;SDS011;5184;51.376;7.148;2022-12-18T06:36:29;4.07;;;2.97;;
10277;SDS011;5184;51.376;7.148;2022-12-18T06:38:56;4.77;;;3.17;;
10277;SDS011;5184;51.376;7.148;2022-12-18T06:41:23;4.13;;;2.90;;
10277;SDS011;5184;51.376;7.148;2022-12-18T06:43:50;5.43;;;3.03;;
10277;SDS011;5184;51.376;7.148;2022-12-18T06:46:18;4.57;;;3.03;;
10277;SDS011;5184;51.376;7.148;2022-12-18T06:48:48;4.20;;;2.80;;
10277;SDS011;5184;51.376;7.148;2022-12-18T06:51:21;3.90;;;2.77;;
10277;SDS011;5184;51.376;7.148;2022-12-18T06:53:48;3.67;;;2.80;;
10277;SDS011;5184;51.376;7.148;2022-12-18T06:56:14;4.77;;;3.20;;
10277;SDS011;5184;51.376;7.148;2022-12-18T06:58:42;5.50;;;3.40;;
10277;SDS011;5184;51.376;7.148;2022-12-18T07:01:10;5.17;;;3.57;;
10277;SDS011;5184;51.376;7.148;2022-12-18T07:03:37;6.27;;;3.57;;
10277;SDS011;5184;51.376;7.148;2022-12-18T07:06:05;5.10;;;3.70;;
10277;SDS011;5184;51.376;7.148;2022-12-18T07:08:32;4.90;;;3.10;;
10277;SDS011;5184;51.376;7.148;2022-12-18T07:10:59;4.70;;;3.37;;
10277;SDS011;5184;51.376;7.148;2022-12-18T07:13:25;4.03;;;3.03;;
10277;SDS011;5184;51.376;7.148;2022-12-18T07:15:52;5.07;;;3.50;;
10277;SDS011;5184;51.376;7.148;2022-12-18T07:18:18;5.17;;;3.30;;
10277;SDS011;5184;51.376;7.148;2022-12-18T07:20:45;4.87;;;3.17;;
10277;SDS011;5184;51.376;7.148;2022-12-18T07:23:12;5.67;;;3.50;;
10277;SDS011;5184;51.376;7.148;2022-12-18T07:25:40;5.27;;;3.73;;
10277;SDS011;5184;51.376;7.148;2022-12-18T07:28:07;5.33;;;3.80;;
10277;SDS011;5184;51.376;7.148;2022-12-18T07:30:36;4.80;;;3.43;;
10277;SDS011;5184;51.376;7.148;2022-12-18T07:33:01;6.67;;;4.40;;
10277;SDS011;5184;51.376;7.148;2022-12-18T07:35:28;7.17;;;4.03;;
10277;SDS011;5184;51.376;7.148;2022-12-18T07:37:54;6.10;;;3.77;;
10277;SDS011;5184;51.376;7.148;2022-12-18T07:40:21;4.20;;;3.30;;
10277;SDS011;5184;51.376;7.148;2022-12-18T07:42:48;5.97;;;3.73;;
10277;SDS011;5184;51.376;7.148;2022-12-18T07:45:15;6.57;;;3.97;;
10277;SDS011;5184;51.376;7.148;2022-12-18T07:47:42;3.93;;;3.20;;
10277;SDS011;5184;51.376;7.148;2022-12-18T07:50:10;4.07;;;3.03;;
10277;SDS011;5184;51.376;7.148;2022-12-18T07:52:36;6.63;;;4.07;;
10277;SDS011;5184;51.376;7.148;2022-12-18T07:55:03;5.10;;;3.50;;
10277;SDS011;5184;51.376;7.148;2022-12-18T07:57:30;5.20;;;3.27;;
10277;SDS011;5184;51.376;7.148;2022-12-18T07:59:57;4.87;;;3.27;;
10277;SDS011;5184;51.376;7.148;2022-12-18T08:02:25;6.57;;;4.03;;
10277;SDS011;5184;51.376;7.148;2022-12-18T08:04:51;5.40;;;3.50;;
10277;SDS011;5184;51.376;7.148;2022-12-18T08:07:18;4.77;;;2.90;;
10277;SDS011;5184;51.376;7.148;2022-12-18T08:09:44;5.07;;;3.30;;
10277;SDS011;5184;51.376;7.148;2022-12-18T08:12:12;5.80;;;3.90;;
10277;SDS011;5184;51.376;7.148;2022-12-18T08:14:39;5.63;;;3.10;;
10277;SDS011;5184;51.376;7.148;2022-12-18T08:17:07;5.60;;;3.27;;
10277;SDS011;5184;51.376;7.148;2022-12-18T08:19:33;5.90;;;3.90;;
10277;SDS011;5184;51.376;7.148;2022-12-18T08:22:00;5.73;;;3.10;;
10277;SDS011;5184;51.376;7.148;2022-12-18T08:24:26;5.70;;;3.40;;
10277;SDS011;5184;51.376;7.148;2022-12-18T08:26:53;4.70;;;3.27;;
10277;SDS011;5184;51.376;7.148;2022-12-18T08:29:21;5.87;;;3.30;;
10277;SDS011;5184;51.376;7.148;2022-12-18T08:31:49;4.60;;;3.10;;
10277;SDS011;5184;51.376;7.148;2022-12-18T08:34:16;5.47;;;3.50;;
10277;SDS011;5184;51.376;7.148;2022-12-18T08:36:42;5.00;;;3.20;;
10277;SDS011;5184;51.376;7.148;2022-12-18T08:39:09;5.00;;;3.20;;
10277;SDS011;5184;51.376;7.148;2022-12-18T08:41:37;5.20;;;3.33;;
10277;SDS011;5184;51.376;7.148;2022-12-18T08:44:06;4.90;;;3.37;;
10277;SDS011;5184;51.376;7.148;2022-12-18T08:46:38;3.83;;;2.57;;
10277;SDS011;5184;51.376;7.148;2022-12-18T08:49:05;5.50;;;3.10;;
10277;SDS011;5184;51.376;7.148;2022-12-18T08:51:31;5.03;;;3.10;;
10277;SDS011;5184;51.376;7.148;2022-12-18T08:53:58;5.33;;;3.30;;
10277;SDS011;5184;51.376;7.148;2022-12-18T08:56:24;5.60;;;3.40;;
10277;SDS011;5184;51.376;7.148;2022-12-18T08:58:52;3.57;;;2.87;;
10277;SDS011;5184;51.376;7.148;2022-12-18T09:01:19;4.57;;;3.30;;
10277;SDS011;5184;51.376;7.148;2022-12-18T09:03:46;4.53;;;3.07;;
10277;SDS011;5184;51.376;7.148;2022-12-18T09:06:14;4.53;;;3.23;;
10277;SDS011;5184;51.376;7.148;2022-12-18T09:08:41;4.90;;;3.03;;
10277;SDS011;5184;51.376;7.148;2022-12-18T09:11:12;4.53;;;3.00;;
10277;SDS011;5184;51.376;7.148;2022-12-18T09:13:38;5.03;;;3.33;;
10277;SDS011;5184;51.376;7.148;2022-12-18T09:16:05;5.00;;;3.60;;
10277;SDS011;5184;51.376;7.148;2022-12-18T09:18:32;4.23;;;3.00;;
10277;SDS011;5184;51.376;7.148;2022-12-18T09:21:06;4.97;;;3.10;;
10277;SDS011;5184;51.376;7.148;2022-12-18T09:23:26;5.77;;;3.20;;
10277;SDS011;5184;51.376;7.148;2022-12-18T09:25:58;3.67;;;2.90;;
10277;SDS011;5184;51.376;7.148;2022-12-18T09:28:20;4.53;;;2.90;;
10277;SDS011;5184;51.376;7.148;2022-12-18T09:30:47;4.57;;;3.00;;
10277;SDS011;5184;51.376;7.148;2022-12-18T09:33:13;5.63;;;3.00;;
10277;SDS011;5184;51.376;7.148;2022-12-18T09:35:40;5.33;;;2.70;;
10277;SDS011;5184;51.376;7.148;2022-12-18T09:38:06;3.97;;;2.90;;
10277;SDS011;5184;51.376;7.148;2022-12-18T09:40:34;4.77;;;3.03;;
10277;SDS011;5184;51.376;7.148;2022-12-18T09:43:04;4.37;;;2.90;;
10277;SDS011;5184;51.376;7.148;2022-12-18T09:45:32;4.87;;;2.83;;
10277;SDS011;5184;51.376;7.148;2022-12-18T09:48:09;4.30;;;2.97;;
10277;SDS011;5184;51.376;7.148;2022-12-18T09:50:34;4.67;;;2.83;;
10277;SDS011;5184;51.376;7.148;2022-12-18T09:53:02;4.77;;;2.70;;
10277;SDS011;5184;51.376;7.148;2022-12-18T09:55:29;4.23;;;3.20;;
10277;SDS011;5184;51.376;7.148;2022-12-18T09:57:56;3.87;;;2.97;;
10277;SDS011;5184;51.376;7.148;2022-12-18T10:00:22;3.30;;;2.60;;
10277;SDS011;5184;51.376;7.148;2022-12-18T10:02:48;4.60;;;2.67;;
10277;SDS011;5184;51.376;7.148;2022-12-18T10:05:17;4.03;;;2.93;;
10277;SDS011;5184;51.376;7.148;2022-12-18T10:07:47;3.87;;;2.80;;
10277;SDS011;5184;51.376;7.148;2022-12-18T10:10:36;3.83;;;2.73;;
10277;SDS011;5184;51.376;7.148;2022-12-18T10:15:36;3.57;;;2.63;;
10277;SDS011;5184;51.376;7.148;2022-12-18T10:20:37;3.87;;;2.57;;
10277;SDS011;5184;51.376;7.148;2022-12-18T10:23:04;4.50;;;2.80;;
10277;SDS011;5184;51.376;7.148;2022-12-18T10:25:33;4.03;;;2.70;;
10277;SDS011;5184;51.376;7.148;2022-12-18T10:27:58;3.77;;;2.90;;
10277;SDS011;5184;51.376;7.148;2022-12-18T10:30:24;4.83;;;3.37;;
10277;SDS011;5184;51.376;7.148;2022-12-18T10:32:51;4.87;;;3.37;;
10277;SDS011;5184;51.376;7.148;2022-12-18T10:35:19;5.30;;;3.00;;
10277;SDS011;5184;51.376;7.148;2022-12-18T10:40:22;5.10;;;3.73;;
10277;SDS011;5184;51.376;7.148;2022-12-18T10:43:02;4.83;;;3.30;;
10277;SDS011;5184;51.376;7.148;2022-12-18T10:45:23;5.70;;;3.53;;
10277;SDS011;5184;51.376;7.148;2022-12-18T10:47:50;4.17;;;3.10;;
10277;SDS011;5184;51.376;7.148;2022-12-18T10:50:22;4.87;;;3.23;;
10277;SDS011;5184;51.376;7.148;2022-12-18T10:52:52;4.50;;;3.40;;
10277;SDS011;5184;51.376;7.148;2022-12-18T10:55:13;5.10;;;3.53;;
10277;SDS011;5184;51.376;7.148;2022-12-18T10:57:40;5.10;;;3.73;;
10277;SDS011;5184;51.376;7.148;2022-12-18T11:00:21;5.20;;;4.07;;
10277;SDS011;5184;51.376;7.148;2022-12-18T11:02:51;6.93;;;4.50;;
10277;SDS011;5184;51.376;7.148;2022-12-18T11:05:24;5.70;;;3.60;;
10277;SDS011;5184;51.376;7.148;2022-12-18T11:07:54;5.23;;;3.80;;
10277;SDS011;5184;51.376;7.148;2022-12-18T11:10:22;5.90;;;3.43;;
10277;SDS011;5184;51.376;7.148;2022-12-18T11:15:36;4.37;;;3.10;;
10277;SDS011;5184;51.376;7.148;2022-12-18T11:18:04;4.47;;;2.90;;
10277;SDS011;5184;51.376;7.148;2022-12-18T11:20:31;5.20;;;3.53;;
10277;SDS011;5184;51.376;7.148;2022-12-18T11:23:05;4.60;;;3.80;;
10277;SDS011;5184;51.376;7.148;2022-12-18T11:25:32;5.60;;;3.00;;
10277;SDS011;5184;51.376;7.148;2022-12-18T11:28:01;4.40;;;3.33;;
10277;SDS011;5184;51.376;7.148;2022-12-18T11:30:27;4.33;;;3.20;;
10277;SDS011;5184;51.376;7.148;2022-12-18T11:32:57;5.43;;;3.40;;
10277;SDS011;5184;51.376;7.148;2022-12-18T11:35:36;4.70;;;3.57;;
10277;SDS011;5184;51.376;7.148;2022-12-18T11:38:10;3.97;;;3.17;;
10277;SDS011;5184;51.376;7.148;2022-12-18T11:40:34;4.73;;;3.40;;
10277;SDS011;5184;51.376;7.148;2022-12-18T11:43:02;4.20;;;3.60;;
10277;SDS011;5184;51.376;7.148;2022-12-18T11:45:34;5.07;;;3.57;;
10277;SDS011;5184;51.376;7.148;2022-12-18T11:48:02;4.50;;;3.20;;
10277;SDS011;5184;51.376;7.148;2022-12-18T11:50:33;3.90;;;3.10;;
10277;SDS011;5184;51.376;7.148;2022-12-18T11:52:57;4.33;;;3.20;;
10277;SDS011;5184;51.376;7.148;2022-12-18T11:55:28;6.20;;;3.30;;
10277;SDS011;5184;51.376;7.148;2022-12-18T11:58:04;5.53;;;3.60;;
10277;SDS011;5184;51.376;7.148;2022-12-18T12:00:39;4.47;;;3.47;;
10277;SDS011;5184;51.376;7.148;2022-12-18T12:08:33;4.83;;;3.30;;
10277;SDS011;5184;51.376;7.148;2022-12-18T12:11:08;4.63;;;3.60;;
10277;SDS011;5184;51.376;7.148;2022-12-18T12:13:38;5.93;;;3.97;;
10277;SDS011;5184;51.376;7.148;2022-12-18T12:16:15;5.53;;;4.00;;
10277;SDS011;5184;51.376;7.148;2022-12-18T12:19:00;6.30;;;4.07;;
10277;SDS011;5184;51.376;7.148;2022-12-18T12:21:34;4.73;;;3.50;;
10277;SDS011;5184;51.376;7.148;2022-12-18T12:24:11;5.07;;;4.03;;
10277;SDS011;5184;51.376;7.148;2022-12-18T12:26:39;5.57;;;3.90;;
10277;SDS011;5184;51.376;7.148;2022-12-18T12:29:18;6.10;;;4.07;;
10277;SDS011;5184;51.376;7.148;2022-12-18T12:32:07;4.80;;;3.33;;
10277;SDS011;5184;51.376;7.148;2022-12-18T12:34:39;5.80;;;3.83;;
10277;SDS011;5184;51.376;7.148;2022-12-18T12:37:12;7.63;;;4.97;;
10277;SDS011;5184;51.376;7.148;2022-12-18T12:39:42;5.10;;;3.80;;
10277;SDS011;5184;51.376;7.148;2022-12-18T12:42:12;5.83;;;4.33;;
10277;SDS011;5184;51.376;7.148;2022-12-18T12:44:47;6.20;;;4.70;;
10277;SDS011;5184;51.376;7.148;2022-12-18T12:47:23;6.77;;;5.00;;
10277;SDS011;5184;51.376;7.148;2022-12-18T12:49:53;7.43;;;4.10;;
10277;SDS011;5184;51.376;7.148;2022-12-18T12:52:27;5.43;;;4.23;;
10277;SDS011;5184;51.376;7.148;2022-12-18T12:54:51;6.03;;;4.83;;
10277;SDS011;5184;51.376;7.148;2022-12-18T12:57:21;6.57;;;4.30;;
10277;SDS011;5184;51.376;7.148;2022-12-18T13:07:53;8.70;;;5.50;;
10277;SDS011;5184;51.376;7.148;2022-12-18T13:10:24;7.47;;;5.20;;
10277;SDS011;5184;51.376;7.148;2022-12-18T13:12:53;6.77;;;4.87;;
10277;SDS011;5184;51.376;7.148;2022-12-18T13:15:24;8.33;;;5.67;;
10277;SDS011;5184;51.376;7.148;2022-12-18T13:18:24;7.17;;;5.10;;
10277;SDS011;5184;51.376;7.148;2022-12-18T13:23:37;7.03;;;5.00;;
10277;SDS011;5184;51.376;7.148;2022-12-18T13:28:56;9.37;;;5.83;;
10277;SDS011;5184;51.376;7.148;2022-12-18T13:34:21;8.70;;;5.67;;
10277;SDS011;5184;51.376;7.148;2022-12-18T13:36:48;9.20;;;6.03;;
10277;SDS011;5184;51.376;7.148;2022-12-18T13:39:31;9.40;;;5.90;;
10277;SDS011;5184;51.376;7.148;2022-12-18T13:47:44;9.93;;;7.03;;
10277;SDS011;5184;51.376;7.148;2022-12-18T13:50:20;10.60;;;6.60;;
10277;SDS011;5184;51.376;7.148;2022-12-18T13:52:46;9.80;;;6.73;;
10277;SDS011;5184;51.376;7.148;2022-12-18T13:55:15;8.50;;;6.40;;
10277;SDS011;5184;51.376;7.148;2022-12-18T13:57:40;10.30;;;6.40;;
10277;SDS011;5184;51.376;7.148;2022-12-18T14:00:44;10.50;;;6.20;;
10277;SDS011;5184;51.376;7.148;2022-12-18T14:02:54;10.17;;;7.33;;
10277;SDS011;5184;51.376;7.148;2022-12-18T14:05:24;10.10;;;6.83;;
10277;SDS011;5184;51.376;7.148;2022-12-18T14:07:50;10.07;;;6.83;;
10277;SDS011;5184;51.376;7.148;2022-12-18T14:10:16;9.77;;;7.60;;
10277;SDS011;5184;51.376;7.148;2022-12-18T14:12:45;10.00;;;7.47;;
10277;SDS011;5184;51.376;7.148;2022-12-18T14:15:33;13.27;;;7.57;;
10277;SDS011;5184;51.376;7.148;2022-12-18T14:18:02;11.43;;;7.57;;
10277;SDS011;5184;51.376;7.148;2022-12-18T14:20:28;12.87;;;7.90;;
10277;SDS011;5184;51.376;7.148;2022-12-18T14:22:53;9.53;;;7.07;;
10277;SDS011;5184;51.376;7.148;2022-12-18T14:25:22;11.17;;;7.77;;
10277;SDS011;5184;51.376;7.148;2022-12-18T14:27:48;10.20;;;7.53;;
10277;SDS011;5184;51.376;7.148;2022-12-18T14:35:26;10.60;;;7.90;;
10277;SDS011;5184;51.376;7.148;2022-12-18T14:37:53;10.93;;;7.70;;
10277;SDS011;5184;51.376;7.148;2022-12-18T14:40:20;11.77;;;7.77;;
10277;SDS011;5184;51.376;7.148;2022-12-18T14:42:47;13.07;;;8.50;;
10277;SDS011;5184;51.376;7.148;2022-12-18T14:45:33;12.07;;;8.37;;
10277;SDS011;5184;51.376;7.148;2022-12-18T14:47:59;12.43;;;8.33;;
10277;SDS011;5184;51.376;7.148;2022-12-18T14:50:26;13.67;;;7.87;;
10277;SDS011;5184;51.376;7.148;2022-12-18T14:52:54;10.63;;;7.60;;
10277;SDS011;5184;51.376;7.148;2022-12-18T14:55:21;11.47;;;7.70;;
10277;SDS011;5184;51.376;7.148;2022-12-18T14:57:49;11.60;;;8.37;;
10277;SDS011;5184;51.376;7.148;2022-12-18T15:00:16;11.93;;;8.10;;
10277;SDS011;5184;51.376;7.148;2022-12-18T15:02:43;13.03;;;9.27;;
10277;SDS011;5184;51.376;7.148;2022-12-18T15:05:21;11.90;;;8.33;;
10277;SDS011;5184;51.376;7.148;2022-12-18T15:07:52;11.97;;;8.27;;
10277;SDS011;5184;51.376;7.148;2022-12-18T15:10:19;12.87;;;8.17;;
10277;SDS011;5184;51.376;7.148;2022-12-18T15:12:46;12.97;;;7.60;;
10277;SDS011;5184;51.376;7.148;2022-12-18T15:17:57;13.50;;;8.63;;
10277;SDS011;5184;51.376;7.148;2022-12-18T15:20:23;16.37;;;8.93;;
10277;SDS011;5184;51.376;7.148;2022-12-18T15:22:49;11.70;;;7.97;;
10277;SDS011;5184;51.376;7.148;2022-12-18T15:25:25;14.50;;;9.13;;
10277;SDS011;5184;51.376;7.148;2022-12-18T15:27:53;13.67;;;9.57;;
10277;SDS011;5184;51.376;7.148;2022-12-18T15:30:21;15.10;;;9.30;;
10277;SDS011;5184;51.376;7.148;2022-12-18T15:32:47;13.17;;;8.87;;
10277;SDS011;5184;51.376;7.148;2022-12-18T15:35:15;13.33;;;9.37;;
10277;SDS011;5184;51.376;7.148;2022-12-18T15:37:43;15.10;;;8.37;;
10277;SDS011;5184;51.376;7.148;2022-12-18T15:40:12;15.30;;;9.63;;
10277;SDS011;5184;51.376;7.148;2022-12-18T15:42:38;13.43;;;8.83;;
10277;SDS011;5184;51.376;7.148;2022-12-18T15:45:11;14.80;;;9.33;;
10277;SDS011;5184;51.376;7.148;2022-12-18T15:47:37;14.60;;;9.60;;
10277;SDS011;5184;51.376;7.148;2022-12-18T15:50:04;14.70;;;9.33;;
10277;SDS011;5184;51.376;7.148;2022-12-18T15:52:32;13.10;;;9.33;;
10277;SDS011;5184;51.376;7.148;2022-12-18T15:54:58;14.07;;;9.40;;
10277;SDS011;5184;51.376;7.148;2022-12-18T15:57:30;14.87;;;10.33;;
10277;SDS011;5184;51.376;7.148;2022-12-18T15:59:57;15.17;;;9.60;;
10277;SDS011;5184;51.376;7.148;2022-12-18T16:02:24;16.73;;;9.40;;